createdAt,value
2019-05-06T00:00:59.562Z,18.43
2019-05-06T00:03:29.574Z,18.23
2019-05-06T00:05:59.420Z,17.13
2019-05-06T00:08:29.003Z,17.90
2019-05-06T00:10:58.788Z,19.37
2019-05-06T00:13:28.497Z,22.63
2019-05-06T00:15:58.161Z,15.43
2019-05-06T00:18:27.798Z,18.37
2019-05-06T00:20:57.710Z,18.83
2019-05-06T00:23:35.373Z,17.97
2019-05-06T00:26:25.044Z,17.83
2019-05-06T00:28:57.860Z,24.80
2019-05-06T00:31:27.423Z,26.63
2019-05-06T00:33:57.027Z,30.53
2019-05-06T00:36:26.676Z,35.17
2019-05-06T00:38:59.312Z,41.37
2019-05-06T00:41:31.392Z,31.30
2019-05-06T00:44:01.025Z,34.47
2019-05-06T00:46:30.636Z,44.47
2019-05-06T00:49:00.210Z,39.60
2019-05-06T00:51:29.859Z,70.93
2019-05-06T00:54:04.747Z,79.70
2019-05-06T00:56:34.378Z,70.10
2019-05-06T00:59:04.089Z,74.13
2019-05-06T01:01:34.535Z,77.03
2019-05-06T01:04:05.230Z,61.57
2019-05-06T01:06:34.823Z,75.60
2019-05-06T01:09:07.307Z,64.07
2019-05-06T01:11:36.947Z,79.17
2019-05-06T01:14:14.845Z,68.17
2019-05-06T01:16:44.541Z,77.37
2019-05-06T01:19:14.286Z,79.73
2019-05-06T01:21:44.773Z,87.60
2019-05-06T01:24:14.778Z,88.43
2019-05-06T01:26:44.668Z,93.90
2019-05-06T01:29:14.686Z,84.40
2019-05-06T01:31:46.163Z,75.60
2019-05-06T01:34:16.594Z,34.40
2019-05-06T01:36:48.173Z,74.13
2019-05-06T01:39:46.088Z,79.53
2019-05-06T01:42:40.467Z,69.40
2019-05-06T01:45:10.331Z,51.87
2019-05-06T01:47:39.912Z,48.93
2019-05-06T01:50:10.983Z,48.57
2019-05-06T01:52:40.585Z,62.77
2019-05-06T01:55:10.430Z,69.17
2019-05-06T01:57:41.203Z,77.30
2019-05-06T02:00:11.319Z,69.07
2019-05-06T02:02:40.919Z,81.13
2019-05-06T02:05:13.731Z,74.80
2019-05-06T02:07:43.925Z,54.13
2019-05-06T02:10:14.167Z,57.13
2019-05-06T02:12:44.418Z,48.67
2019-05-06T02:15:14.678Z,63.80
2019-05-06T02:17:44.428Z,51.93
2019-05-06T02:20:34.142Z,46.43
2019-05-06T02:23:14.550Z,53.27
2019-05-06T02:25:47.645Z,55.63
2019-05-06T02:28:17.296Z,41.63
2019-05-06T02:31:14.629Z,37.97
2019-05-06T02:34:10.954Z,44.77
2019-05-06T02:37:07.337Z,41.13
2019-05-06T02:39:37.029Z,50.43
2019-05-06T02:42:08.663Z,56.33
2019-05-06T02:44:38.303Z,60.30
2019-05-06T02:47:30.029Z,59.67
2019-05-06T02:50:04.521Z,44.97
2019-05-06T02:52:34.405Z,40.03
2019-05-06T02:55:06.437Z,41.10
2019-05-06T02:57:35.423Z,43.67
2019-05-06T03:00:25.171Z,40.37
2019-05-06T03:02:55.023Z,37.63
2019-05-06T03:05:44.872Z,37.80
2019-05-06T03:08:14.562Z,46.80
2019-05-06T03:10:44.645Z,41.17
2019-05-06T03:13:14.615Z,43.60
2019-05-06T03:15:44.377Z,34.43
2019-05-06T03:18:15.098Z,34.90
2019-05-06T03:20:55.550Z,44.90
2019-05-06T03:23:26.852Z,51.20
2019-05-06T03:25:56.482Z,42.10
2019-05-06T03:28:26.119Z,40.03
2019-05-06T03:30:57.043Z,41.97
2019-05-06T03:33:47.839Z,42.20
2019-05-06T03:36:15.478Z,38.87
2019-05-06T03:38:34.760Z,41.80
2019-05-06T03:41:04.377Z,40.83
2019-05-06T03:43:34.155Z,41.07
2019-05-06T03:46:23.247Z,39.27
2019-05-06T03:48:55.862Z,45.43
2019-05-06T03:51:25.542Z,44.67
2019-05-06T03:53:56.802Z,38.67
2019-05-06T03:56:33.719Z,41.87
2019-05-06T03:59:02.907Z,36.23
2019-05-06T04:01:33.624Z,44.63
2019-05-06T04:04:03.907Z,40.70
2019-05-06T04:06:33.887Z,38.03
2019-05-06T04:09:05.454Z,39.27
2019-05-06T04:11:36.482Z,36.07
2019-05-06T04:14:08.277Z,34.53
2019-05-06T04:16:47.441Z,42.87
2019-05-06T04:19:33.124Z,37.00
2019-05-06T04:22:13.448Z,45.33
2019-05-06T04:24:49.088Z,39.10
2019-05-06T04:27:33.900Z,55.17
2019-05-06T04:30:04.872Z,48.70
2019-05-06T04:32:35.012Z,44.13
2019-05-06T04:35:23.631Z,45.97
2019-05-06T04:37:54.687Z,49.00
2019-05-06T04:40:44.095Z,47.13
2019-05-06T04:43:14.069Z,49.90
2019-05-06T04:45:43.652Z,50.57
2019-05-06T04:48:14.327Z,53.63
2019-05-06T04:51:03.476Z,55.53
2019-05-06T04:53:53.659Z,53.37
2019-05-06T04:56:24.122Z,46.47
2019-05-06T04:59:14.491Z,47.90
2019-05-06T05:01:45.502Z,44.93
2019-05-06T05:04:27.725Z,42.80
2019-05-06T05:06:47.540Z,41.43
2019-05-06T05:09:17.644Z,36.60
2019-05-06T05:11:55.056Z,37.03
2019-05-06T05:14:43.650Z,37.57
2019-05-06T05:17:22.339Z,40.77
2019-05-06T05:19:52.299Z,36.50
2019-05-06T05:22:22.008Z,39.77
2019-05-06T05:24:54.619Z,35.83
2019-05-06T05:27:24.283Z,37.50
2019-05-06T05:30:13.049Z,33.10
2019-05-06T05:32:42.936Z,39.70
2019-05-06T05:35:12.842Z,28.47
2019-05-06T05:37:42.689Z,30.10
2019-05-06T05:40:15.549Z,34.60
2019-05-06T05:43:18.621Z,37.07
2019-05-06T05:46:07.245Z,35.10
2019-05-06T05:48:55.875Z,25.07
2019-05-06T05:51:25.470Z,27.70
2019-05-06T05:53:55.604Z,31.80
2019-05-06T05:56:25.226Z,24.57
2019-05-06T05:58:54.872Z,17.77
2019-05-06T06:01:26.703Z,23.97
2019-05-06T06:03:56.584Z,20.37
2019-05-06T06:06:26.463Z,24.40
2019-05-06T06:08:56.068Z,25.77
2019-05-06T06:11:29.909Z,22.87
2019-05-06T06:14:03.044Z,18.20
2019-05-06T06:16:53.312Z,21.07
2019-05-06T06:19:32.905Z,17.07
2019-05-06T06:22:05.546Z,15.27
2019-05-06T06:24:54.309Z,11.43
2019-05-06T06:27:24.019Z,14.47
2019-05-06T06:29:56.511Z,13.00
2019-05-06T06:32:28.407Z,11.33
2019-05-06T06:35:10.741Z,10.00
2019-05-06T06:37:46.865Z,9.30
2019-05-06T06:40:18.436Z,15.03
2019-05-06T06:42:52.500Z,15.37
2019-05-06T06:45:23.032Z,9.97
2019-05-06T06:47:52.820Z,12.33
2019-05-06T06:50:22.458Z,10.70
2019-05-06T06:52:52.698Z,12.10
2019-05-06T06:55:22.641Z,11.97
2019-05-06T06:58:19.416Z,16.27
2019-05-06T07:01:14.111Z,12.27
2019-05-06T07:04:11.196Z,12.57
2019-05-06T07:06:46.119Z,11.40
2019-05-06T07:09:15.826Z,12.07
2019-05-06T07:11:45.421Z,12.00
2019-05-06T07:14:14.972Z,10.17
2019-05-06T07:16:44.601Z,8.50
2019-05-06T07:19:16.234Z,7.33
2019-05-06T07:21:55.118Z,9.23
2019-05-06T07:24:24.727Z,10.47
2019-05-06T07:27:03.017Z,7.90
2019-05-06T07:29:32.903Z,8.50
2019-05-06T07:32:02.848Z,8.43
2019-05-06T07:34:34.526Z,7.93
2019-05-06T07:37:08.003Z,6.00
2019-05-06T07:39:39.505Z,8.70
2019-05-06T07:42:17.045Z,7.93
2019-05-06T07:45:12.369Z,7.37
2019-05-06T07:47:55.215Z,7.37
2019-05-06T07:50:25.189Z,8.57
2019-05-06T07:53:07.007Z,7.13
2019-05-06T07:55:37.661Z,11.00
2019-05-06T07:58:07.694Z,8.63
2019-05-06T08:00:37.958Z,8.17
2019-05-06T08:03:07.710Z,11.20
2019-05-06T08:05:37.468Z,6.77
2019-05-06T08:08:07.138Z,8.33
2019-05-06T08:10:36.760Z,5.10
2019-05-06T08:13:06.533Z,3.80
2019-05-06T08:15:36.246Z,5.20
2019-05-06T08:18:05.947Z,5.00
2019-05-06T08:20:38.835Z,6.73
2019-05-06T08:23:15.533Z,4.20
2019-05-06T08:25:47.597Z,4.70
2019-05-06T08:28:17.362Z,7.07
2019-05-06T08:30:47.111Z,4.60
2019-05-06T08:33:16.835Z,4.40
2019-05-06T08:35:46.484Z,7.87
2019-05-06T08:38:16.104Z,4.07
2019-05-06T08:40:45.738Z,3.60
2019-05-06T08:43:15.418Z,4.27
2019-05-06T08:45:45.036Z,3.53
2019-05-06T08:48:14.736Z,6.30
2019-05-06T08:51:09.092Z,2.60
2019-05-06T08:53:46.695Z,2.10
2019-05-06T08:56:22.034Z,2.10
2019-05-06T08:58:52.849Z,1.80
2019-05-06T09:01:34.587Z,4.03
2019-05-06T09:04:09.483Z,4.43
2019-05-06T09:06:36.103Z,2.73
2019-05-06T09:09:08.481Z,2.10
2019-05-06T09:11:38.335Z,3.37
2019-05-06T09:14:09.939Z,4.53
2019-05-06T09:16:58.310Z,1.97
2019-05-06T09:19:27.922Z,4.00
2019-05-06T09:21:57.600Z,3.73
2019-05-06T09:24:27.216Z,3.13
2019-05-06T09:27:02.985Z,3.43
2019-05-06T09:29:46.195Z,3.77
2019-05-06T09:32:36.075Z,3.90
2019-05-06T09:35:07.209Z,3.60
2019-05-06T09:37:36.903Z,2.33
2019-05-06T09:40:07.199Z,1.30
2019-05-06T09:42:36.791Z,2.87
2019-05-06T09:45:06.851Z,2.37
2019-05-06T09:48:03.751Z,4.40
2019-05-06T09:50:39.963Z,2.37
2019-05-06T09:53:13.952Z,2.80
2019-05-06T09:56:03.362Z,7.60
2019-05-06T09:58:33.126Z,2.07
2019-05-06T10:01:03.838Z,3.37
2019-05-06T10:03:33.504Z,1.37
2019-05-06T10:06:03.075Z,2.90
2019-05-06T10:08:32.752Z,2.00
2019-05-06T10:11:03.153Z,2.77
2019-05-06T10:13:33.169Z,6.27
2019-05-06T10:16:03.159Z,3.47
2019-05-06T10:18:33.039Z,2.87
2019-05-06T10:21:02.735Z,4.73
2019-05-06T10:23:32.725Z,3.77
2019-05-06T10:26:04.513Z,3.70
2019-05-06T10:28:48.086Z,1.83
2019-05-06T10:31:18.835Z,2.47
2019-05-06T10:34:06.148Z,2.47
2019-05-06T10:36:42.785Z,2.20
2019-05-06T10:39:14.812Z,4.83
2019-05-06T10:41:47.468Z,6.27
2019-05-06T10:45:01.860Z,3.03
2019-05-06T10:47:33.038Z,6.83
2019-05-06T10:50:02.591Z,3.80
2019-05-06T10:52:51.853Z,4.87
2019-05-06T10:55:23.168Z,9.47
2019-05-06T10:57:53.355Z,4.70
2019-05-06T11:00:23.273Z,18.37
2019-05-06T11:03:22.721Z,8.60
2019-05-06T11:05:53.663Z,8.77
2019-05-06T11:08:23.681Z,5.77
2019-05-06T11:10:53.703Z,9.47
2019-05-06T11:13:24.474Z,6.63
2019-05-06T11:15:55.675Z,6.53
2019-05-06T11:18:25.495Z,6.20
2019-05-06T11:20:56.189Z,5.67
2019-05-06T11:23:26.242Z,6.77
2019-05-06T11:25:55.912Z,7.20
2019-05-06T11:28:43.348Z,7.93
2019-05-06T11:31:34.963Z,7.17
2019-05-06T11:34:14.803Z,7.27
2019-05-06T11:36:52.628Z,6.03
2019-05-06T11:39:23.215Z,7.53
2019-05-06T11:42:14.426Z,7.13
2019-05-06T11:44:24.535Z,8.20
2019-05-06T11:46:54.114Z,4.07
2019-05-06T11:49:23.768Z,4.13
2019-05-06T11:51:53.383Z,10.77
2019-05-06T11:54:24.415Z,4.83
2019-05-06T11:56:58.107Z,7.60
2019-05-06T11:59:25.567Z,6.30
2019-05-06T12:02:17.910Z,7.20
2019-05-06T12:04:47.591Z,4.60
2019-05-06T12:07:17.212Z,3.87
2019-05-06T12:09:46.833Z,4.27
2019-05-06T12:12:16.587Z,3.43
2019-05-06T12:14:46.245Z,4.17
2019-05-06T12:17:15.969Z,10.97
2019-05-06T12:19:45.620Z,6.03
2019-05-06T12:22:15.281Z,3.07
2019-05-06T12:24:45.064Z,7.33
2019-05-06T12:27:33.801Z,11.00
2019-05-06T12:30:05.407Z,8.17
2019-05-06T12:32:43.322Z,6.20
2019-05-06T12:35:13.426Z,8.50
2019-05-06T12:37:44.696Z,17.73
2019-05-06T12:40:14.264Z,9.43
2019-05-06T12:42:53.460Z,9.33
2019-05-06T12:45:53.011Z,8.17
2019-05-06T12:48:26.066Z,5.50
2019-05-06T12:50:57.364Z,4.63
2019-05-06T12:53:29.429Z,9.23
2019-05-06T12:55:59.305Z,8.53
2019-05-06T12:58:29.017Z,6.70
2019-05-06T13:00:58.631Z,8.33
2019-05-06T13:03:31.586Z,5.63
2019-05-06T13:06:07.442Z,7.53
2019-05-06T13:08:49.805Z,8.77
2019-05-06T13:11:02.794Z,6.53
2019-05-06T13:13:33.192Z,9.23
2019-05-06T13:16:03.334Z,10.50
2019-05-06T13:18:32.981Z,7.13
2019-05-06T13:21:06.465Z,7.10
2019-05-06T13:24:04.355Z,6.40
2019-05-06T13:26:33.319Z,7.47
2019-05-06T13:29:10.208Z,7.23
2019-05-06T13:31:39.795Z,7.73
2019-05-06T13:34:16.307Z,6.47
2019-05-06T13:36:46.284Z,5.60
2019-05-06T13:39:16.326Z,12.68
2019-05-06T13:41:46.016Z,25.05
2019-05-06T13:44:17.056Z,37.95
2019-05-06T13:46:56.139Z,20.43
2019-05-06T13:49:56.176Z,9.05
2019-05-06T13:52:27.821Z,7.60
2019-05-06T13:54:57.514Z,9.43
2019-05-06T13:57:29.037Z,13.30
2019-05-06T13:59:58.998Z,6.55
2019-05-06T14:02:53.157Z,7.83
2019-05-06T14:05:23.490Z,7.72
2019-05-06T14:07:53.181Z,8.03
2019-05-06T14:10:22.875Z,10.88
2019-05-06T14:12:53.300Z,6.70
2019-05-06T14:15:23.404Z,5.75
2019-05-06T14:17:53.429Z,4.53
2019-05-06T14:20:23.679Z,7.95
2019-05-06T14:22:53.326Z,10.23
2019-05-06T14:25:48.128Z,6.30
2019-05-06T14:28:32.897Z,3.33
2019-05-06T14:31:16.926Z,4.55
2019-05-06T14:33:46.661Z,3.15
2019-05-06T14:36:16.409Z,8.75
2019-05-06T14:38:46.044Z,6.30
2019-05-06T14:41:18.709Z,8.75
2019-05-06T14:43:48.388Z,5.53
2019-05-06T14:46:18.059Z,4.50
2019-05-06T14:48:47.779Z,5.15
2019-05-06T14:51:17.494Z,5.22
2019-05-06T14:53:47.179Z,5.58
2019-05-06T14:56:32.572Z,5.90
2019-05-06T14:59:08.016Z,9.68
2019-05-06T15:01:39.335Z,4.90
2019-05-06T15:04:12.550Z,4.92
2019-05-06T15:06:42.734Z,4.47
2019-05-06T15:09:14.253Z,5.50
2019-05-06T15:11:43.919Z,3.83
2019-05-06T15:14:13.603Z,4.08
2019-05-06T15:16:43.219Z,6.65
2019-05-06T15:19:13.071Z,5.85
2019-05-06T15:21:43.085Z,5.30
2019-05-06T15:24:14.710Z,5.65
2019-05-06T15:26:44.504Z,6.20
2019-05-06T15:29:14.224Z,5.08
2019-05-06T15:32:05.652Z,5.67
2019-05-06T15:34:56.052Z,3.52
2019-05-06T15:37:33.686Z,4.92
2019-05-06T15:40:04.157Z,8.50
2019-05-06T15:42:34.198Z,4.92
2019-05-06T15:45:05.205Z,5.03
2019-05-06T15:47:37.239Z,6.35
2019-05-06T15:50:12.513Z,3.45
2019-05-06T15:52:44.969Z,3.35
2019-05-06T15:55:15.171Z,7.42
2019-05-06T15:57:44.933Z,3.65
2019-05-06T16:00:17.252Z,5.90
2019-05-06T16:02:47.006Z,6.50
2019-05-06T16:05:20.028Z,4.55
2019-05-06T16:07:52.818Z,4.47
2019-05-06T16:10:22.707Z,5.05
2019-05-06T16:12:55.115Z,9.50
2019-05-06T16:15:29.228Z,5.08
2019-05-06T16:18:04.517Z,5.12
2019-05-06T16:20:35.311Z,5.53
2019-05-06T16:23:12.926Z,4.53
2019-05-06T16:25:54.641Z,4.35
2019-05-06T16:28:28.709Z,3.37
2019-05-06T16:30:58.546Z,6.75
2019-05-06T16:33:32.922Z,3.90
2019-05-06T16:36:03.457Z,5.58
2019-05-06T16:38:34.418Z,4.72
2019-05-06T16:41:12.670Z,19.92
2019-05-06T16:43:43.510Z,17.77
2019-05-06T16:46:17.155Z,10.57
2019-05-06T16:48:53.018Z,5.87
2019-05-06T16:51:32.719Z,5.57
2019-05-06T16:54:04.220Z,5.30
2019-05-06T16:56:44.631Z,6.47
2019-05-06T16:59:16.250Z,9.00
2019-05-06T17:01:49.215Z,8.00
2019-05-06T17:04:28.717Z,3.10
2019-05-06T17:07:07.344Z,3.10
2019-05-06T17:09:42.976Z,6.00
2019-05-06T17:12:27.298Z,4.07
2019-05-06T17:15:03.780Z,4.53
2019-05-06T17:17:43.465Z,4.13
2019-05-06T17:20:12.183Z,4.13
2019-05-06T17:22:42.722Z,3.83
2019-05-06T17:25:15.587Z,4.57
2019-05-06T17:27:52.691Z,4.47
2019-05-06T17:30:43.789Z,3.63
2019-05-06T17:33:33.319Z,5.00
2019-05-06T17:36:09.274Z,3.03
2019-05-06T17:38:43.489Z,3.07
2019-05-06T17:41:17.041Z,4.93
2019-05-06T17:44:05.491Z,6.90
2019-05-06T17:46:52.750Z,3.47
2019-05-06T17:49:24.714Z,4.50
2019-05-06T17:52:05.806Z,4.50
2019-05-06T17:54:35.552Z,6.30
2019-05-06T17:57:05.595Z,8.87
2019-05-06T17:59:37.444Z,5.87
2019-05-06T18:02:10.572Z,9.50
2019-05-06T18:04:42.888Z,4.20
2019-05-06T18:07:17.669Z,6.23
2019-05-06T18:10:06.568Z,3.80
2019-05-06T18:12:38.187Z,5.17
2019-05-06T18:15:14.726Z,8.83
2019-05-06T18:18:04.558Z,10.30
2019-05-06T18:20:34.505Z,5.87
2019-05-06T18:23:07.394Z,10.00
2019-05-06T18:25:39.683Z,12.63
2019-05-06T18:28:12.265Z,7.50
2019-05-06T18:31:03.102Z,9.43
2019-05-06T18:33:32.962Z,9.50
2019-05-06T18:36:06.149Z,9.47
2019-05-06T18:38:35.793Z,13.03
2019-05-06T18:41:24.663Z,10.10
2019-05-06T18:43:59.712Z,9.20
2019-05-06T18:46:32.408Z,12.30
2019-05-06T18:49:02.639Z,12.83
2019-05-06T18:51:32.564Z,15.83
2019-05-06T18:54:03.105Z,13.40
2019-05-06T18:56:33.092Z,15.07
2019-05-06T18:59:04.007Z,14.50
2019-05-06T19:01:37.307Z,16.00
2019-05-06T19:04:26.082Z,15.70
2019-05-06T19:07:09.442Z,15.97
2019-05-06T19:09:48.476Z,15.60
2019-05-06T19:12:30.369Z,16.27
2019-05-06T19:14:55.615Z,10.67
2019-05-06T19:17:25.516Z,11.20
2019-05-06T19:19:55.408Z,12.83
2019-05-06T19:22:27.664Z,11.93
2019-05-06T19:24:59.496Z,12.57
2019-05-06T19:27:29.198Z,14.03
2019-05-06T19:30:02.344Z,13.73
2019-05-06T19:32:34.550Z,13.93
2019-05-06T19:35:04.490Z,13.10
2019-05-06T19:37:38.145Z,16.43
2019-05-06T19:40:09.524Z,15.43
2019-05-06T19:42:46.941Z,16.93
2019-05-06T19:45:17.956Z,15.47
2019-05-06T19:47:49.580Z,14.33
2019-05-06T19:50:26.037Z,13.73
2019-05-06T19:53:20.682Z,13.63
2019-05-06T19:55:57.900Z,13.50
2019-05-06T19:58:54.544Z,14.13
2019-05-06T20:01:10.005Z,10.07
2019-05-06T20:03:40.006Z,10.57
2019-05-06T20:06:40.841Z,12.77
2019-05-06T20:09:42.648Z,11.93
2019-05-06T20:12:39.472Z,12.10
2019-05-06T20:15:37.078Z,10.03
2019-05-06T20:18:07.568Z,14.83
2019-05-06T20:20:37.578Z,12.53
2019-05-06T20:23:07.579Z,15.07
2019-05-06T20:25:56.343Z,14.97
2019-05-06T20:28:26.050Z,11.77
2019-05-06T20:30:55.716Z,14.03
2019-05-06T20:33:25.425Z,13.07
2019-05-06T20:35:55.112Z,12.47
2019-05-06T20:38:24.834Z,13.60
2019-05-06T20:41:13.630Z,11.37
2019-05-06T20:43:43.303Z,12.20
2019-05-06T20:46:12.966Z,12.03
2019-05-06T20:48:42.797Z,14.57
2019-05-06T20:51:12.489Z,12.07
2019-05-06T20:53:43.163Z,12.20
2019-05-06T20:56:12.971Z,11.43
2019-05-06T20:58:42.611Z,14.43
2019-05-06T21:01:12.327Z,10.80
2019-05-06T21:03:42.522Z,12.17
2019-05-06T21:06:13.177Z,12.83
2019-05-06T21:08:43.063Z,15.13
2019-05-06T21:11:25.760Z,8.90
2019-05-06T21:14:07.575Z,7.93
2019-05-06T21:16:37.084Z,10.00
2019-05-06T21:19:09.175Z,14.17
2019-05-06T21:21:57.499Z,14.90
2019-05-06T21:24:27.334Z,19.17
2019-05-06T21:26:57.139Z,18.40
2019-05-06T21:29:26.923Z,22.03
2019-05-06T21:31:57.648Z,19.57
2019-05-06T21:34:27.458Z,20.00
2019-05-06T21:37:17.771Z,18.53
2019-05-06T21:39:47.465Z,19.17
2019-05-06T21:42:17.100Z,19.57
2019-05-06T21:44:46.770Z,18.53
2019-05-06T21:47:16.411Z,19.37
2019-05-06T21:49:48.944Z,21.87
2019-05-06T21:52:18.682Z,14.20
2019-05-06T21:54:48.302Z,13.80
2019-05-06T21:57:18.108Z,13.20
2019-05-06T21:59:47.721Z,13.77
2019-05-06T22:02:18.920Z,13.87
2019-05-06T22:04:48.592Z,13.20
2019-05-06T22:07:18.326Z,17.57
2019-05-06T22:09:48.000Z,13.27
2019-05-06T22:12:17.657Z,12.87
2019-05-06T22:14:47.483Z,12.13
2019-05-06T22:17:17.207Z,12.43
2019-05-06T22:20:06.154Z,10.30
2019-05-06T22:22:36.030Z,10.70
2019-05-06T22:25:06.315Z,13.30
2019-05-06T22:27:36.044Z,9.87
2019-05-06T22:30:24.735Z,9.43
2019-05-06T22:32:54.541Z,10.53
2019-05-06T22:35:24.315Z,12.50
2019-05-06T22:37:54.015Z,7.83
2019-05-06T22:40:24.953Z,7.13
2019-05-06T22:43:00.583Z,6.93
2019-05-06T22:45:54.026Z,11.20
2019-05-06T22:48:25.184Z,9.53
2019-05-06T22:50:55.028Z,14.03
2019-05-06T22:53:26.013Z,10.73
2019-05-06T22:55:57.261Z,8.97
2019-05-06T22:58:28.120Z,11.37
2019-05-06T23:00:58.075Z,9.23
2019-05-06T23:03:31.720Z,9.27
2019-05-06T23:06:02.551Z,9.17
2019-05-06T23:08:32.572Z,11.50
2019-05-06T23:11:02.453Z,10.20
2019-05-06T23:13:32.091Z,9.80
2019-05-06T23:16:02.073Z,5.97
2019-05-06T23:18:32.115Z,7.67
2019-05-06T23:21:02.457Z,10.20
2019-05-06T23:23:34.085Z,7.87
2019-05-06T23:26:24.057Z,11.03
2019-05-06T23:28:56.190Z,5.90
2019-05-06T23:31:25.850Z,9.83
2019-05-06T23:33:55.528Z,6.53
2019-05-06T23:36:28.453Z,11.37
2019-05-06T23:39:33.959Z,8.63
2019-05-06T23:42:41.926Z,8.33
2019-05-06T23:45:47.578Z,10.13
2019-05-06T23:48:53.063Z,12.03
2019-05-06T23:51:58.339Z,9.73
2019-05-06T23:55:03.884Z,14.77
2019-05-06T23:57:32.572Z,14.57
